createdAt,value
2023-04-13T00:01:14.141Z,4.19
2023-04-13T00:03:40.615Z,4.33
2023-04-13T00:06:11.341Z,4.34
2023-04-13T00:08:37.938Z,4.35
2023-04-13T00:11:05.121Z,4.10
2023-04-13T00:13:31.445Z,4.11
2023-04-13T00:15:59.589Z,4.02
2023-04-13T00:18:25.927Z,4.14
2023-04-13T00:20:52.242Z,4.16
2023-04-13T00:23:18.700Z,4.09
2023-04-13T00:25:45.003Z,4.18
2023-04-13T00:28:11.828Z,4.02
2023-04-13T00:30:38.197Z,4.22
2023-04-13T00:33:04.675Z,4.11
2023-04-13T00:35:31.135Z,3.90
2023-04-13T00:37:58.695Z,3.94
2023-04-13T00:40:25.166Z,4.09
2023-04-13T00:42:55.826Z,4.10
2023-04-13T00:45:22.189Z,3.91
2023-04-13T00:47:49.002Z,3.85
2023-04-13T00:50:20.901Z,4.03
2023-04-13T00:52:48.204Z,3.94
2023-04-13T00:55:15.101Z,3.87
2023-04-13T00:57:41.882Z,3.84
2023-04-13T01:00:17.214Z,3.87
2023-04-13T01:02:44.179Z,3.69
2023-04-13T01:05:15.644Z,3.75
2023-04-13T01:07:52.873Z,3.79
2023-04-13T01:10:29.091Z,3.62
2023-04-13T01:13:14.368Z,3.69
2023-04-13T01:15:43.396Z,3.71
2023-04-13T01:18:10.116Z,3.86
2023-04-13T01:20:38.062Z,3.84
2023-04-13T01:23:07.643Z,3.73
2023-04-13T01:25:50.782Z,3.81
2023-04-13T01:28:18.418Z,3.78
2023-04-13T01:30:45.535Z,3.70
2023-04-13T01:33:12.378Z,3.90
2023-04-13T01:35:38.974Z,3.78
2023-04-13T01:38:06.763Z,3.92
2023-04-13T01:40:35.033Z,3.99
2023-04-13T01:43:01.591Z,3.90
2023-04-13T01:45:29.275Z,3.91
2023-04-13T01:47:55.606Z,4.05
2023-04-13T01:50:26.722Z,4.16
2023-04-13T01:52:54.419Z,3.90
2023-04-13T01:55:23.071Z,3.96
2023-04-13T01:57:51.768Z,3.81
2023-04-13T02:00:18.507Z,3.99
2023-04-13T02:02:45.234Z,3.92
2023-04-13T02:05:12.028Z,3.98
2023-04-13T02:07:39.899Z,3.94
2023-04-13T02:10:06.727Z,4.00
2023-04-13T02:12:34.085Z,3.98
2023-04-13T02:15:01.209Z,4.02
2023-04-13T02:17:29.475Z,4.05
2023-04-13T02:19:57.023Z,3.97
2023-04-13T02:22:23.642Z,4.07
2023-04-13T02:24:50.379Z,4.01
2023-04-13T02:27:17.391Z,4.09
2023-04-13T02:29:44.622Z,4.11
2023-04-13T02:32:10.981Z,3.96
2023-04-13T02:34:37.386Z,4.06
2023-04-13T02:37:03.675Z,4.11
2023-04-13T02:39:30.029Z,3.97
2023-04-13T02:42:05.530Z,3.87
2023-04-13T02:44:31.880Z,3.77
2023-04-13T02:46:58.193Z,3.76
2023-04-13T02:49:24.493Z,3.67
2023-04-13T02:51:50.823Z,3.79
2023-04-13T02:54:17.123Z,3.73
2023-04-13T02:56:44.777Z,3.92
2023-04-13T02:59:11.110Z,3.75
2023-04-13T03:01:37.566Z,3.70
2023-04-13T03:04:04.268Z,3.54
2023-04-13T03:06:31.325Z,3.62
2023-04-13T03:08:57.684Z,3.70
2023-04-13T03:11:25.030Z,3.45
2023-04-13T03:13:54.028Z,3.33
2023-04-13T03:16:21.021Z,2.89
2023-04-13T03:18:47.394Z,2.97
2023-04-13T03:21:14.148Z,3.12
2023-04-13T03:23:40.443Z,2.89
2023-04-13T03:26:06.886Z,2.84
2023-04-13T03:28:33.207Z,2.79
2023-04-13T03:30:59.623Z,2.96
2023-04-13T03:33:25.950Z,2.94
2023-04-13T03:35:55.258Z,2.87
2023-04-13T03:38:21.564Z,2.93
2023-04-13T03:40:47.952Z,2.82
2023-04-13T03:43:14.217Z,2.69
2023-04-13T03:45:40.718Z,2.67
2023-04-13T03:48:07.174Z,2.69
2023-04-13T03:50:33.665Z,2.64
2023-04-13T03:52:59.958Z,2.80
2023-04-13T03:55:27.093Z,2.61
2023-04-13T03:57:54.252Z,2.61
2023-04-13T04:00:20.571Z,2.42
2023-04-13T04:02:47.198Z,2.45
2023-04-13T04:05:13.880Z,2.56
2023-04-13T04:07:40.213Z,2.58
2023-04-13T04:10:06.874Z,2.45
2023-04-13T04:12:33.187Z,2.35
2023-04-13T04:14:59.515Z,2.46
2023-04-13T04:17:25.845Z,2.46
2023-04-13T04:19:52.363Z,2.60
2023-04-13T04:22:18.683Z,2.36
2023-04-13T04:24:45.307Z,2.53
2023-04-13T04:27:14.359Z,2.66
2023-04-13T04:29:40.711Z,2.41
2023-04-13T04:32:10.927Z,2.66
2023-04-13T04:34:38.557Z,2.64
2023-04-13T04:37:17.716Z,2.58
2023-04-13T04:39:46.888Z,2.55
2023-04-13T04:42:14.484Z,2.55
2023-04-13T04:44:40.808Z,2.82
2023-04-13T04:47:07.133Z,3.03
2023-04-13T04:49:34.089Z,2.79
2023-04-13T04:52:00.782Z,2.66
2023-04-13T04:54:27.141Z,2.83
2023-04-13T04:56:53.579Z,2.77
2023-04-13T04:59:19.880Z,3.00
2023-04-13T05:01:46.668Z,2.74
2023-04-13T05:04:13.226Z,2.65
2023-04-13T05:06:41.545Z,2.70
2023-04-13T05:09:08.896Z,2.85
2023-04-13T05:11:35.207Z,2.83
2023-04-13T05:14:01.506Z,2.78
2023-04-13T05:16:30.516Z,2.60
2023-04-13T05:18:57.162Z,2.51
2023-04-13T05:21:23.617Z,2.48
2023-04-13T05:23:49.883Z,2.35
2023-04-13T05:26:16.655Z,2.47
2023-04-13T05:28:43.099Z,2.42
2023-04-13T05:31:10.976Z,2.53
2023-04-13T05:33:37.505Z,2.77
2023-04-13T05:36:04.506Z,2.66
2023-04-13T05:38:31.733Z,2.80
2023-04-13T05:40:58.661Z,2.66
2023-04-13T05:43:25.015Z,2.58
2023-04-13T05:45:51.491Z,2.73
2023-04-13T05:48:17.882Z,2.69
2023-04-13T05:50:44.332Z,2.67
2023-04-13T05:53:10.821Z,2.61
2023-04-13T05:55:37.130Z,2.88
2023-04-13T05:58:06.391Z,2.98
2023-04-13T06:00:32.769Z,3.10
2023-04-13T06:03:01.422Z,3.29
2023-04-13T06:05:29.655Z,3.24
2023-04-13T06:07:56.102Z,3.39
2023-04-13T06:10:22.416Z,3.39
2023-04-13T06:12:48.949Z,3.47
2023-04-13T06:15:15.326Z,3.45
2023-04-13T06:17:51.501Z,3.74
2023-04-13T06:20:17.875Z,3.65
2023-04-13T06:22:44.189Z,3.90
2023-04-13T06:25:12.108Z,3.78
2023-04-13T06:27:38.691Z,3.88
2023-04-13T06:30:05.829Z,3.76
2023-04-13T06:32:32.208Z,3.90
2023-04-13T06:34:58.822Z,3.82
2023-04-13T06:37:25.161Z,4.13
2023-04-13T06:39:51.675Z,4.10
2023-04-13T06:42:18.427Z,4.19
2023-04-13T06:44:44.743Z,4.25
2023-04-13T06:47:11.157Z,4.45
2023-04-13T06:49:37.539Z,4.14
2023-04-13T06:52:03.915Z,4.01
2023-04-13T06:54:30.736Z,4.00
2023-04-13T06:56:57.142Z,4.10
2023-04-13T06:59:23.424Z,4.06
2023-04-13T07:01:49.820Z,3.87
2023-04-13T07:04:16.304Z,3.99
2023-04-13T07:06:42.644Z,3.83
2023-04-13T07:09:08.926Z,3.80
2023-04-13T07:11:35.240Z,3.79
2023-04-13T07:14:01.690Z,3.86
2023-04-13T07:16:28.135Z,4.00
2023-04-13T07:18:54.513Z,4.00
2023-04-13T07:21:21.583Z,4.27
2023-04-13T07:23:47.874Z,4.30
2023-04-13T07:26:15.194Z,4.17
2023-04-13T07:28:41.753Z,4.22
2023-04-13T07:31:08.065Z,4.19
2023-04-13T07:33:34.366Z,4.42
2023-04-13T07:36:00.650Z,4.68
2023-04-13T07:38:26.997Z,4.49
2023-04-13T07:40:53.326Z,4.47
2023-04-13T07:43:20.647Z,4.58
2023-04-13T07:45:47.103Z,4.91
2023-04-13T07:48:13.442Z,5.13
2023-04-13T07:50:40.640Z,5.26
2023-04-13T07:53:07.034Z,5.38
2023-04-13T07:55:33.383Z,5.65
2023-04-13T07:57:59.872Z,5.77
2023-04-13T08:00:27.046Z,5.97
2023-04-13T08:02:57.806Z,6.01
2023-04-13T08:05:24.459Z,6.12
2023-04-13T08:07:50.937Z,5.30
2023-04-13T08:10:17.317Z,5.85
2023-04-13T08:12:43.708Z,5.73
2023-04-13T08:15:10.246Z,5.84
2023-04-13T08:17:36.700Z,5.71
2023-04-13T08:20:06.140Z,5.92
2023-04-13T08:22:32.437Z,6.15
2023-04-13T08:24:59.012Z,5.94
2023-04-13T08:27:25.847Z,6.08
2023-04-13T08:30:01.729Z,6.00
2023-04-13T08:32:28.427Z,6.26
2023-04-13T08:34:55.680Z,5.94
2023-04-13T08:37:21.962Z,5.82
2023-04-13T08:39:48.400Z,6.06
2023-04-13T08:42:15.087Z,5.92
2023-04-13T08:44:42.923Z,5.85
2023-04-13T08:47:10.246Z,6.19
2023-04-13T08:49:38.017Z,6.12
2023-04-13T08:52:05.396Z,6.57
2023-04-13T08:54:32.884Z,6.51
2023-04-13T08:56:59.366Z,6.13
2023-04-13T08:59:27.854Z,6.44
2023-04-13T09:01:54.997Z,6.37
2023-04-13T09:04:24.097Z,6.54
2023-04-13T09:06:51.745Z,6.82
2023-04-13T09:09:19.085Z,6.91
2023-04-13T09:11:46.403Z,7.13
2023-04-13T09:14:13.713Z,6.67
2023-04-13T09:16:41.122Z,7.11
2023-04-13T09:19:08.576Z,7.08
2023-04-13T09:21:42.248Z,7.06
2023-04-13T09:24:09.246Z,7.05
2023-04-13T09:26:45.691Z,6.88
2023-04-13T09:29:16.746Z,6.03
2023-04-13T09:31:45.571Z,6.19
2023-04-13T09:34:12.635Z,6.01
2023-04-13T09:36:49.559Z,6.20
2023-04-13T09:39:26.737Z,6.42
2023-04-13T09:41:54.241Z,6.55
2023-04-13T09:44:22.295Z,6.45
2023-04-13T09:47:01.204Z,6.41
2023-04-13T09:49:37.193Z,6.90
2023-04-13T09:52:03.480Z,6.69
2023-04-13T09:54:29.795Z,6.94
2023-04-13T09:56:57.734Z,6.57
2023-04-13T09:59:24.688Z,7.07
2023-04-13T10:01:54.832Z,7.09
2023-04-13T10:04:21.466Z,7.13
2023-04-13T10:06:47.899Z,7.33
2023-04-13T10:09:15.056Z,7.24
2023-04-13T10:11:51.244Z,7.67
2023-04-13T10:14:25.859Z,7.55
2023-04-13T10:16:53.866Z,7.62
2023-04-13T10:19:21.477Z,6.96
2023-04-13T10:21:50.281Z,6.64
2023-04-13T10:24:17.173Z,6.57
2023-04-13T10:26:44.932Z,6.46
2023-04-13T10:29:14.021Z,6.74
2023-04-13T10:31:41.607Z,6.85
2023-04-13T10:34:08.714Z,6.89
2023-04-13T10:36:37.764Z,6.65
2023-04-13T10:39:04.235Z,6.85
2023-04-13T10:41:30.672Z,6.64
2023-04-13T10:44:04.204Z,7.24
2023-04-13T10:46:31.354Z,7.16
2023-04-13T10:48:59.424Z,7.18
2023-04-13T10:51:27.541Z,7.45
2023-04-13T10:54:03.343Z,7.55
2023-04-13T10:56:29.737Z,6.91
2023-04-13T10:58:56.546Z,6.49
2023-04-13T11:01:23.964Z,7.14
2023-04-13T11:04:03.801Z,6.83
2023-04-13T11:06:36.097Z,6.72
2023-04-13T11:09:06.333Z,6.90
2023-04-13T11:11:34.260Z,7.03
2023-04-13T11:14:00.828Z,7.25
2023-04-13T11:16:27.615Z,7.54
2023-04-13T11:19:01.015Z,7.20
2023-04-13T11:21:27.652Z,6.80
2023-04-13T11:23:53.962Z,7.18
2023-04-13T11:26:30.531Z,7.27
2023-04-13T11:29:17.009Z,6.68
2023-04-13T11:31:43.339Z,6.67
2023-04-13T11:34:11.148Z,6.81
2023-04-13T11:36:40.521Z,7.00
2023-04-13T11:39:10.645Z,7.08
2023-04-13T11:41:40.974Z,6.89
2023-04-13T11:44:07.377Z,6.98
2023-04-13T11:46:34.147Z,6.73
2023-04-13T11:49:01.072Z,6.88
2023-04-13T11:51:27.930Z,6.32
2023-04-13T11:53:54.317Z,6.06
2023-04-13T11:56:20.838Z,6.65
2023-04-13T11:58:49.793Z,6.72
2023-04-13T12:01:23.373Z,7.05
2023-04-13T12:04:01.646Z,6.80
2023-04-13T12:06:35.224Z,7.10
2023-04-13T12:09:10.235Z,7.05
2023-04-13T12:11:46.015Z,6.84
2023-04-13T12:19:26.251Z,7.24
2023-04-13T12:21:56.151Z,7.20
2023-04-13T12:24:34.183Z,7.42
2023-04-13T12:29:36.797Z,7.22
2023-04-13T12:32:03.961Z,7.14
2023-04-13T12:34:30.389Z,7.26
2023-04-13T12:36:57.939Z,7.31
2023-04-13T12:39:24.288Z,7.29
2023-04-13T12:41:51.164Z,7.69
2023-04-13T12:44:19.489Z,7.18
2023-04-13T12:46:45.879Z,7.47
2023-04-13T12:49:12.196Z,7.72
2023-04-13T12:51:38.617Z,7.53
2023-04-13T12:54:08.760Z,7.60
2023-04-13T12:56:35.046Z,7.74
2023-04-13T12:59:01.781Z,7.94
2023-04-13T13:01:29.253Z,7.91
2023-04-13T13:03:56.060Z,7.92
2023-04-13T13:06:23.584Z,7.42
2023-04-13T13:08:50.425Z,7.77
2023-04-13T13:11:16.801Z,7.67
2023-04-13T13:13:43.105Z,7.65
2023-04-13T13:16:09.471Z,7.94
2023-04-13T13:18:49.224Z,7.57
2023-04-13T13:21:16.990Z,7.49
2023-04-13T13:23:43.554Z,7.37
2023-04-13T13:28:39.137Z,7.02
2023-04-13T13:31:10.796Z,7.07
2023-04-13T13:33:37.126Z,7.05
2023-04-13T13:36:03.502Z,7.11
2023-04-13T13:38:29.861Z,7.37
2023-04-13T13:40:56.414Z,7.31
2023-04-13T13:43:22.800Z,7.52
2023-04-13T13:45:49.278Z,7.33
2023-04-13T13:48:15.902Z,7.29
2023-04-13T13:50:42.227Z,7.25
2023-04-13T13:53:08.775Z,7.62
2023-04-13T13:55:35.317Z,7.82
2023-04-13T13:58:01.615Z,7.40
2023-04-13T14:00:27.997Z,7.16
2023-04-13T14:02:54.530Z,7.27
2023-04-13T14:05:22.164Z,7.55
2023-04-13T14:07:48.654Z,7.63
2023-04-13T14:10:15.047Z,7.33
2023-04-13T14:12:43.198Z,7.55
2023-04-13T14:15:10.371Z,7.72
2023-04-13T14:17:37.138Z,7.52
2023-04-13T14:20:08.982Z,7.55
2023-04-13T14:22:39.914Z,7.50
2023-04-13T14:25:06.955Z,7.62
2023-04-13T14:27:33.590Z,7.81
2023-04-13T14:29:59.903Z,7.84
2023-04-13T14:32:26.665Z,7.75
2023-04-13T14:34:53.315Z,7.81
2023-04-13T14:37:19.998Z,7.82
2023-04-13T14:39:46.624Z,7.91
2023-04-13T14:42:12.981Z,8.10
2023-04-13T14:44:39.300Z,7.92
2023-04-13T14:47:08.801Z,8.18
2023-04-13T14:49:35.801Z,7.92
2023-04-13T14:52:02.451Z,8.20
2023-04-13T14:54:28.757Z,8.12
2023-04-13T14:56:55.331Z,7.83
2023-04-13T14:59:21.905Z,7.99
2023-04-13T15:01:48.636Z,7.84
2023-04-13T15:04:15.962Z,8.04
2023-04-13T15:06:42.323Z,7.97
2023-04-13T15:09:12.982Z,7.92
2023-04-13T15:11:39.408Z,7.63
2023-04-13T15:14:05.737Z,7.84
2023-04-13T15:16:32.058Z,7.52
2023-04-13T15:18:58.707Z,7.52
2023-04-13T15:21:25.271Z,7.62
2023-04-13T15:23:51.558Z,7.26
2023-04-13T15:26:18.485Z,7.37
2023-04-13T15:28:44.979Z,7.35
2023-04-13T15:31:11.299Z,7.32
2023-04-13T15:33:38.152Z,7.65
2023-04-13T15:36:04.993Z,7.45
2023-04-13T15:38:31.308Z,7.38
2023-04-13T15:40:57.836Z,7.48
2023-04-13T15:43:24.243Z,7.52
2023-04-13T15:45:50.716Z,7.32
2023-04-13T15:48:17.749Z,7.19
2023-04-13T15:50:44.052Z,7.25
2023-04-13T15:53:10.344Z,7.25
2023-04-13T15:55:36.683Z,7.11
2023-04-13T15:58:03.756Z,7.40
2023-04-13T16:00:30.098Z,7.15
2023-04-13T16:02:56.773Z,7.31
2023-04-13T16:05:23.224Z,7.36
2023-04-13T16:07:49.732Z,6.95
2023-04-13T16:10:16.668Z,7.04
2023-04-13T16:12:44.686Z,7.09
2023-04-13T16:15:12.022Z,7.38
2023-04-13T16:17:43.739Z,7.20
2023-04-13T16:20:13.277Z,7.12
2023-04-13T16:22:43.264Z,6.66
2023-04-13T16:25:15.250Z,6.87
2023-04-13T16:27:42.342Z,6.83
2023-04-13T16:30:12.290Z,6.84
2023-04-13T16:32:46.498Z,6.81
2023-04-13T16:35:13.043Z,6.72
2023-04-13T16:37:41.046Z,6.73
2023-04-13T16:40:10.182Z,6.67
2023-04-13T16:42:40.368Z,6.72
2023-04-13T16:45:08.032Z,6.72
2023-04-13T16:47:34.469Z,6.60
2023-04-13T16:50:01.054Z,6.56
2023-04-13T16:52:27.457Z,6.57
2023-04-13T16:54:53.828Z,6.48
2023-04-13T16:57:20.619Z,6.49
2023-04-13T16:59:47.106Z,6.54
2023-04-13T17:02:28.092Z,6.55
2023-04-13T17:04:57.264Z,6.38
2023-04-13T17:07:26.665Z,6.20
2023-04-13T17:09:53.183Z,6.35
2023-04-13T17:12:19.444Z,6.43
2023-04-13T17:14:46.545Z,6.11
2023-04-13T17:17:13.009Z,6.18
2023-04-13T17:19:39.432Z,6.25
2023-04-13T17:22:05.716Z,6.29
2023-04-13T17:24:32.411Z,6.28
2023-04-13T17:26:58.745Z,6.26
2023-04-13T17:29:25.052Z,6.24
2023-04-13T17:31:51.735Z,6.16
2023-04-13T17:34:18.062Z,5.95
2023-04-13T17:36:45.053Z,6.04
2023-04-13T17:39:11.515Z,5.77
2023-04-13T17:41:38.439Z,5.83
2023-04-13T17:44:04.954Z,5.80
2023-04-13T17:46:31.341Z,5.59
2023-04-13T17:48:57.976Z,5.57
2023-04-13T17:51:25.055Z,5.67
2023-04-13T17:53:51.331Z,5.57
2023-04-13T17:56:18.039Z,5.56
2023-04-13T17:58:44.790Z,5.71
2023-04-13T18:01:11.392Z,5.55
2023-04-13T18:03:38.019Z,5.40
2023-04-13T18:06:05.336Z,5.44
2023-04-13T18:08:31.693Z,5.40
2023-04-13T18:11:01.075Z,5.36
2023-04-13T18:13:28.104Z,5.36
2023-04-13T18:16:03.804Z,5.33
2023-04-13T18:18:30.229Z,5.32
2023-04-13T18:20:56.572Z,5.26
2023-04-13T18:23:22.914Z,5.27
2023-04-13T18:25:49.850Z,5.24
2023-04-13T18:28:17.127Z,5.27
2023-04-13T18:30:44.298Z,5.18
2023-04-13T18:33:11.425Z,5.31
2023-04-13T18:35:45.507Z,5.23
2023-04-13T18:38:12.009Z,5.14
2023-04-13T18:40:39.719Z,5.21
2023-04-13T18:43:06.249Z,5.11
2023-04-13T18:45:32.589Z,5.26
2023-04-13T18:47:58.976Z,5.17
2023-04-13T18:50:26.658Z,5.12
2023-04-13T18:52:53.048Z,5.10
2023-04-13T18:55:19.453Z,5.04
2023-04-13T18:57:45.835Z,5.03
2023-04-13T19:00:13.515Z,5.09
2023-04-13T19:02:42.132Z,4.98
2023-04-13T19:05:12.227Z,4.79
2023-04-13T19:07:39.966Z,4.80
2023-04-13T19:10:06.627Z,4.82
2023-04-13T19:12:32.951Z,4.74
2023-04-13T19:14:59.296Z,4.82
2023-04-13T19:17:26.875Z,4.62
2023-04-13T19:19:53.744Z,4.45
2023-04-13T19:22:20.212Z,4.45
2023-04-13T19:24:46.924Z,4.47
2023-04-13T19:27:13.440Z,4.44
2023-04-13T19:29:40.408Z,4.40
2023-04-13T19:32:10.230Z,4.24
2023-04-13T19:34:36.673Z,4.36
2023-04-13T19:37:03.002Z,4.35
2023-04-13T19:39:29.307Z,4.43
2023-04-13T19:41:55.734Z,4.51
2023-04-13T19:44:22.034Z,4.50
2023-04-13T19:46:48.368Z,4.23
2023-04-13T19:49:14.784Z,4.13
2023-04-13T19:51:41.103Z,4.14
2023-04-13T19:54:07.422Z,4.28
2023-04-13T19:56:37.133Z,4.30
2023-04-13T19:59:04.215Z,4.36
2023-04-13T20:01:33.060Z,4.28
2023-04-13T20:04:00.365Z,4.25
2023-04-13T20:06:30.080Z,4.08
2023-04-13T20:09:06.738Z,4.19
2023-04-13T20:11:34.314Z,4.42
2023-04-13T20:14:00.953Z,4.30
2023-04-13T20:16:27.538Z,4.33
2023-04-13T20:18:53.839Z,4.25
2023-04-13T20:21:20.175Z,4.11
2023-04-13T20:23:46.453Z,4.18
2023-04-13T20:26:12.816Z,4.05
2023-04-13T20:28:40.869Z,4.14
2023-04-13T20:31:08.301Z,4.11
2023-04-13T20:33:34.715Z,3.86
2023-04-13T20:36:01.030Z,3.91
2023-04-13T20:38:29.875Z,3.82
2023-04-13T20:40:57.081Z,3.62
2023-04-13T20:43:53.427Z,3.65
2023-04-13T20:46:21.643Z,3.70
2023-04-13T20:48:51.301Z,3.51
2023-04-13T20:51:18.450Z,3.27
2023-04-13T20:53:45.074Z,3.15
2023-04-13T20:56:11.587Z,3.26
2023-04-13T20:58:38.201Z,3.18
2023-04-13T21:01:04.724Z,3.15
2023-04-13T21:03:31.913Z,3.20
2023-04-13T21:05:59.168Z,3.12
2023-04-13T21:08:26.526Z,2.95
2023-04-13T21:10:54.886Z,3.06
2023-04-13T21:13:21.819Z,3.02
2023-04-13T21:15:48.145Z,3.04
2023-04-13T21:18:14.461Z,2.91
2023-04-13T21:20:42.615Z,2.92
2023-04-13T21:23:08.915Z,2.98
2023-04-13T21:25:36.065Z,2.95
2023-04-13T21:28:03.043Z,3.01
2023-04-13T21:30:29.566Z,2.89
2023-04-13T21:32:55.904Z,3.12
2023-04-13T21:35:22.314Z,3.22
2023-04-13T21:37:48.658Z,3.23
2023-04-13T21:40:16.119Z,3.13
2023-04-13T21:42:42.457Z,3.14
2023-04-13T21:45:09.011Z,3.14
2023-04-13T21:47:35.488Z,3.11
2023-04-13T21:50:01.872Z,3.09
2023-04-13T21:52:28.843Z,3.14
2023-04-13T21:54:55.394Z,3.02
2023-04-13T21:57:21.785Z,2.96
2023-04-13T21:59:48.091Z,2.99
2023-04-13T22:02:14.451Z,3.18
2023-04-13T22:04:41.095Z,3.03
2023-04-13T22:07:07.459Z,2.98
2023-04-13T22:09:33.888Z,2.91
2023-04-13T22:12:00.225Z,2.99
2023-04-13T22:14:26.580Z,3.02
2023-04-13T22:16:53.913Z,3.00
2023-04-13T22:19:20.272Z,3.14
2023-04-13T22:21:46.570Z,3.08
2023-04-13T22:24:13.275Z,3.03
2023-04-13T22:26:39.593Z,2.98
2023-04-13T22:29:07.935Z,2.95
2023-04-13T22:31:34.255Z,2.96
2023-04-13T22:34:00.676Z,2.97
2023-04-13T22:36:27.046Z,3.04
2023-04-13T22:38:54.694Z,3.02
2023-04-13T22:41:21.098Z,3.05
2023-04-13T22:43:47.478Z,3.00
2023-04-13T22:46:13.822Z,2.94
2023-04-13T22:48:40.517Z,2.97
2023-04-13T22:51:06.939Z,3.07
2023-04-13T22:53:33.262Z,3.08
2023-04-13T22:56:00.533Z,3.16
2023-04-13T22:58:27.335Z,3.18
2023-04-13T23:00:53.770Z,3.19
2023-04-13T23:03:21.207Z,3.17
2023-04-13T23:05:47.711Z,3.16
2023-04-13T23:08:14.010Z,3.14
2023-04-13T23:10:40.297Z,2.97
2023-04-13T23:13:06.708Z,3.03
2023-04-13T23:15:33.024Z,3.00
2023-04-13T23:18:02.298Z,2.80
2023-04-13T23:20:28.774Z,2.72
2023-04-13T23:23:01.281Z,2.73
2023-04-13T23:25:27.757Z,2.83
2023-04-13T23:27:54.059Z,2.90
2023-04-13T23:30:20.536Z,2.84
2023-04-13T23:32:46.899Z,2.82
2023-04-13T23:35:13.227Z,3.00
2023-04-13T23:37:42.061Z,2.88
2023-04-13T23:40:09.044Z,2.72
2023-04-13T23:42:35.741Z,2.73
2023-04-13T23:45:02.454Z,2.70
2023-04-13T23:47:28.826Z,2.63
2023-04-13T23:49:55.781Z,2.46
2023-04-13T23:52:22.123Z,2.48
2023-04-13T23:54:48.409Z,2.30
2023-04-13T23:57:14.802Z,2.19
2023-04-13T23:59:41.239Z,2.11
